Time;durP1;ratioP1;P1;durP2;ratioP2;P2;SDS_P1;SDS_P2;PMS_P1;PMS_P2;Temp;Humidity;BMP_temperature;BMP_pressure;BME280_temperature;BME280_humidity;BME280_pressure;Samples;Min_cycle;Max_cycle;Signal;HPM_P1;HPM_P2
2023/02/26 00:00:49;;;;;;;39.08;18.58;;;;;;;;;;6263769;28;20066;-74
2023/02/26 00:03:53;;;;;;;;;;;;;;;;;;6264979;28;20156;-75
2023/02/26 00:06:55;;;;;;;39.08;19.42;;;;;;;;;;6263452;28;19917;-75
2023/02/26 00:09:57;;;;;;;32.80;19.90;;;;;;;;;;6262884;28;20384;-73
2023/02/26 00:12:59;;;;;;;31.30;19.90;;;;;;;;;;6263409;28;20056;-75
2023/02/26 00:16:02;;;;;;;34.97;19.15;;;;;;;;;;6265478;28;20075;-74
2023/02/26 00:19:06;;;;;;;31.92;19.40;;;;;;;;;;6264624;28;20057;-75
2023/02/26 00:22:09;;;;;;;39.08;19.05;;;;;;;;;;6264873;28;20054;-75
2023/02/26 00:25:12;;;;;;;39.47;19.60;;;;;;;;;;6264960;28;20067;-76
2023/02/26 00:28:15;;;;;;;41.80;20.15;;;;;;;;;;6264418;28;20045;-76
2023/02/26 00:31:19;;;;;;;36.90;20.20;;;;;;;;;;6262237;28;20305;-76
2023/02/26 00:34:23;;;;;;;39.20;20.92;;;;;;;;;;6240023;28;20064;-76
2023/02/26 00:37:28;;;;;;;;;;;;;;;;;;6238992;28;20396;-75
2023/02/26 00:40:36;;;;;;;38.92;19.05;;;;;;;;;;6240716;28;19917;-74
2023/02/26 00:43:38;;;;;;;35.85;19.67;;;;;;;;;;6245091;28;20081;-72
2023/02/26 00:46:45;;;;;;;30.95;19.05;;;;;;;;;;6264982;28;20056;-75
2023/02/26 00:50:01;;;;;;;33.92;19.23;;;;;;;;;;6265978;28;20102;-73
2023/02/26 00:53:08;;;;;;;41.55;19.42;;;;;;;;;;6263231;28;20064;-75
2023/02/26 00:56:10;;;;;;;44.30;20.92;;;;;;;;;;6263481;28;20232;-76
2023/02/26 00:59:12;;;;;;;38.35;19.30;;;;;;;;;;6264437;28;20337;-76
2023/02/26 01:02:14;;;;;;;37.42;19.55;;;;;;;;;;6254159;28;20049;-75
2023/02/26 01:05:19;;;;;;;47.92;20.83;;;;;;;;;;6261551;28;20053;-75
2023/02/26 01:08:27;;;;;;;34.28;19.58;;;;;;;;;;6262303;28;20051;-74
2023/02/26 01:11:29;;;;;;;34.60;19.92;;;;;;;;;;6261988;28;20225;-75
2023/02/26 01:14:37;;;;;;;39.45;20.23;;;;;;;;;;6263603;28;20441;-75
2023/02/26 01:17:44;;;;;;;39.92;20.23;;;;;;;;;;6264126;28;20053;-75
2023/02/26 01:20:50;;;;;;;32.83;19.80;;;;;;;;;;6263821;28;20057;-76
2023/02/26 01:23:52;;;;;;;37.65;19.83;;;;;;;;;;6250371;28;20236;-72
2023/02/26 01:26:55;;;;;;;38.30;19.27;;;;;;;;;;6267269;28;20056;-75
2023/02/26 01:29:57;;;;;;;45.75;22.30;;;;;;;;;;6268074;28;20060;-75
2023/02/26 01:33:04;;;;;;;43.67;21.70;;;;;;;;;;6263499;28;20042;-74
2023/02/26 01:36:13;;;;;;;37.38;20.40;;;;;;;;;;6266642;28;20063;-75
2023/02/26 01:39:20;;;;;;;37.65;21.83;;;;;;;;;;6269346;28;20052;-75
2023/02/26 01:42:38;;;;;;;43.22;21.52;;;;;;;;;;6271250;28;20053;-72
2023/02/26 01:45:52;;;;;;;35.33;21.33;;;;;;;;;;6260675;28;20269;-74
2023/02/26 01:49:04;;;;;;;39.50;20.65;;;;;;;;;;6238310;28;20045;-74
2023/02/26 01:52:46;;;;;;;43.15;22.75;;;;;;;;;;6246337;28;20123;-74
2023/02/26 01:55:51;;;;;;;39.22;21.25;;;;;;;;;;6244407;28;20223;-74
2023/02/26 01:58:53;;;;;;;42.17;21.35;;;;;;;;;;6259018;28;20064;-73
2023/02/26 02:01:57;;;;;;;37.78;22.38;;;;;;;;;;6265676;28;20053;-75
2023/02/26 02:05:04;;;;;;;38.22;21.52;;;;;;;;;;6268976;28;20266;-75
2023/02/26 02:08:07;;;;;;;39.30;21.83;;;;;;;;;;6266925;28;20057;-74
2023/02/26 02:11:11;;;;;;;37.47;21.17;;;;;;;;;;6266884;28;20056;-74
2023/02/26 02:14:22;;;;;;;36.63;21.13;;;;;;;;;;6270294;28;20049;-75
2023/02/26 02:17:30;;;;;;;35.10;20.02;;;;;;;;;;6267218;28;20079;-74
2023/02/26 02:20:58;;;;;;;38.75;21.75;;;;;;;;;;6269390;28;20315;-74
2023/02/26 02:24:06;;;;;;;37.67;21.63;;;;;;;;;;6269422;28;20045;-75
2023/02/26 02:27:10;;;;;;;39.38;22.67;;;;;;;;;;6270378;28;20124;-73
2023/02/26 02:30:20;;;;;;;;;;;;;;;;;;6271928;28;20095;-75
2023/02/26 02:33:26;;;;;;;39.75;21.15;;;;;;;;;;6264614;28;20080;-75
2023/02/26 02:36:33;;;;;;;46.15;23.55;;;;;;;;;;6265577;28;20120;-75
2023/02/26 02:39:40;;;;;;;40.83;20.58;;;;;;;;;;6267641;28;20098;-74
2023/02/26 02:42:46;;;;;;;39.97;21.17;;;;;;;;;;6267363;28;20057;-76
2023/02/26 02:45:50;;;;;;;39.15;20.10;;;;;;;;;;6267222;28;20449;-77
2023/02/26 02:48:58;;;;;;;36.13;20.75;;;;;;;;;;6266410;28;20337;-75
2023/02/26 02:52:03;;;;;;;43.83;22.10;;;;;;;;;;6266287;28;20091;-76
2023/02/26 02:55:08;;;;;;;37.95;22.25;;;;;;;;;;6264836;28;20041;-75
2023/02/26 02:58:12;;;;;;;35.97;20.23;;;;;;;;;;6266596;28;20045;-75
2023/02/26 03:01:15;;;;;;;;;;;;;;;;;;6266451;28;20072;-75
2023/02/26 03:04:19;;;;;;;37.85;20.13;;;;;;;;;;6265078;28;20843;-76
2023/02/26 03:07:20;;;;;;;34.72;20.60;;;;;;;;;;6264879;28;20196;-75
2023/02/26 03:10:23;;;;;;;38.70;20.73;;;;;;;;;;6267783;28;20045;-75
2023/02/26 03:13:26;;;;;;;33.28;20.90;;;;;;;;;;6268376;28;20122;-75
2023/02/26 03:16:45;;;;;;;36.38;20.65;;;;;;;;;;6267349;28;20067;-75
2023/02/26 03:20:03;;;;;;;40.85;21.60;;;;;;;;;;6266570;28;20057;-76
2023/02/26 03:23:11;;;;;;;42.45;20.95;;;;;;;;;;6269328;28;20676;-76
2023/02/26 03:26:15;;;;;;;35.53;20.70;;;;;;;;;;6267442;28;20057;-77
2023/02/26 03:29:23;;;;;;;36.30;19.85;;;;;;;;;;6270854;28;20072;-75
2023/02/26 03:32:29;;;;;;;40.72;21.88;;;;;;;;;;6267073;28;20045;-71
2023/02/26 03:35:36;;;;;;;36.70;21.27;;;;;;;;;;6267334;28;20065;-75
2023/02/26 03:38:50;;;;;;;40.08;22.55;;;;;;;;;;6267665;28;20049;-75
2023/02/26 03:41:58;;;;;;;36.67;21.60;;;;;;;;;;6268225;28;20956;-73
2023/02/26 03:45:03;;;;;;;36.25;20.98;;;;;;;;;;6267607;28;20049;-75
2023/02/26 03:48:08;;;;;;;43.03;20.48;;;;;;;;;;6264018;28;20254;-75
2023/02/26 03:51:13;;;;;;;34.95;18.80;;;;;;;;;;6246389;28;20510;-76
2023/02/26 03:58:07;;;;;;;32.92;16.10;;;;;;;;;;6194791;28;20072;-75
2023/02/26 04:01:17;;;;;;;24.25;14.30;;;;;;;;;;6237791;28;20113;-76
2023/02/26 04:04:24;;;;;;;26.58;12.73;;;;;;;;;;6241568;28;20288;-76
2023/02/26 04:14:56;;;;;;;25.27;14.90;;;;;;;;;;6237321;28;20045;-76
2023/02/26 04:17:58;;;;;;;27.88;16.25;;;;;;;;;;6265474;28;20080;-72
2023/02/26 04:21:00;;;;;;;33.95;16.70;;;;;;;;;;6267915;28;20045;-76
2023/02/26 04:24:04;;;;;;;28.42;17.15;;;;;;;;;;6265984;28;20053;-76
2023/02/26 04:27:06;;;;;;;34.13;16.90;;;;;;;;;;6263172;28;20057;-76
2023/02/26 04:30:09;;;;;;;34.63;17.58;;;;;;;;;;6261475;28;20313;-75
2023/02/26 04:33:14;;;;;;;36.73;18.60;;;;;;;;;;6262822;28;20049;-75
2023/02/26 04:36:16;;;;;;;41.30;20.83;;;;;;;;;;6263030;28;20060;-75
2023/02/26 04:39:20;;;;;;;38.10;20.40;;;;;;;;;;6262244;28;20053;-76
2023/02/26 04:42:21;;;;;;;51.10;24.23;;;;;;;;;;6250438;28;20144;-74
2023/02/26 04:45:27;;;;;;;51.92;24.98;;;;;;;;;;6264653;28;20056;-76
2023/02/26 04:48:29;;;;;;;58.97;29.38;;;;;;;;;;6264867;28;20056;-72
2023/02/26 04:51:40;;;;;;;57.05;27.83;;;;;;;;;;6265569;28;20222;-75
2023/02/26 04:54:43;;;;;;;60.80;29.25;;;;;;;;;;6264741;28;20136;-75
2023/02/26 04:57:45;;;;;;;61.33;30.70;;;;;;;;;;6264822;28;20103;-75
2023/02/26 05:00:49;;;;;;;67.05;31.98;;;;;;;;;;6261672;28;20045;-76
2023/02/26 05:03:50;;;;;;;65.32;32.53;;;;;;;;;;6254853;28;20460;-75
2023/02/26 05:06:52;;;;;;;68.55;32.78;;;;;;;;;;6239547;28;20125;-75
2023/02/26 05:09:56;;;;;;;66.53;33.13;;;;;;;;;;6240560;28;20069;-72
2023/02/26 05:12:57;;;;;;;68.55;34.95;;;;;;;;;;6239066;28;20061;-75
2023/02/26 05:15:59;;;;;;;72.75;33.42;;;;;;;;;;6238538;28;20053;-74
2023/02/26 05:19:01;;;;;;;62.40;29.80;;;;;;;;;;6239695;28;20053;-74
2023/02/26 05:22:03;;;;;;;52.13;22.92;;;;;;;;;;6240060;28;20050;-71
2023/02/26 05:25:07;;;;;;;32.90;14.85;;;;;;;;;;6241695;28;20045;-78
2023/02/26 05:28:09;;;;;;;;;;;;;;;;;;6237533;28;20103;-79
2023/02/26 05:31:11;;;;;;;15.07;7.07;;;;;;;;;;6238652;28;19923;-78
2023/02/26 05:34:14;;;;;;;13.52;6.45;;;;;;;;;;6240439;28;20100;-75
2023/02/26 05:37:16;;;;;;;21.60;6.80;;;;;;;;;;6238292;28;20042;-76
2023/02/26 05:40:19;;;;;;;11.05;4.35;;;;;;;;;;6238320;28;20065;-78
2023/02/26 05:43:22;;;;;;;6.83;3.23;;;;;;;;;;6258468;28;20110;-78
2023/02/26 05:46:45;;;;;;;2.87;1.67;;;;;;;;;;6262273;28;20325;-78
2023/02/26 05:49:47;;;;;;;5.15;1.58;;;;;;;;;;6261362;28;20472;-76
2023/02/26 05:52:49;;;;;;;6.10;1.20;;;;;;;;;;6263225;28;20268;-74
2023/02/26 05:55:53;;;;;;;4.50;1.17;;;;;;;;;;6259728;28;20165;-74
2023/02/26 05:58:54;;;;;;;6.22;1.20;;;;;;;;;;6232686;28;20129;-75
2023/02/26 06:01:59;;;;;;;5.85;1.20;;;;;;;;;;6262087;28;20057;-73
2023/02/26 06:05:01;;;;;;;8.13;1.10;;;;;;;;;;6253740;28;20077;-74
2023/02/26 06:08:23;;;;;;;1.65;0.95;;;;;;;;;;6266540;28;20056;-74
2023/02/26 06:11:38;;;;;;;4.53;1.05;;;;;;;;;;6261657;28;20099;-74
2023/02/26 06:14:47;;;;;;;2.83;0.98;;;;;;;;;;6267235;28;20049;-75
2023/02/26 06:17:50;;;;;;;3.45;0.90;;;;;;;;;;6237336;28;20045;-75
2023/02/26 06:20:52;;;;;;;3.78;1.20;;;;;;;;;;6267121;28;20053;-74
2023/02/26 06:23:54;;;;;;;5.20;1.00;;;;;;;;;;6267167;28;20251;-74
2023/02/26 06:27:13;;;;;;;1.15;0.47;;;;;;;;;;6265208;28;20092;-74
2023/02/26 06:30:15;;;;;;;2.85;0.77;;;;;;;;;;6267824;28;20068;-73
2023/02/26 06:33:17;;;;;;;2.03;0.70;;;;;;;;;;6269513;28;20076;-75
2023/02/26 06:36:19;;;;;;;1.42;0.82;;;;;;;;;;6265666;28;20057;-75
2023/02/26 06:39:21;;;;;;;1.00;0.50;;;;;;;;;;6266774;28;20317;-75
2023/02/26 06:42:27;;;;;;;1.80;0.70;;;;;;;;;;6265997;28;20115;-74
2023/02/26 06:45:29;;;;;;;1.02;0.52;;;;;;;;;;6267283;28;20059;-74
2023/02/26 06:48:31;;;;;;;2.05;0.73;;;;;;;;;;6265596;28;20049;-74
2023/02/26 06:51:34;;;;;;;1.30;0.60;;;;;;;;;;6265580;28;20045;-74
2023/02/26 06:54:36;;;;;;;2.10;0.60;;;;;;;;;;6267015;28;20053;-74
2023/02/26 06:57:39;;;;;;;1.75;0.73;;;;;;;;;;6267624;28;20048;-76
2023/02/26 07:00:42;;;;;;;1.00;0.68;;;;;;;;;;6268033;28;20055;-71
2023/02/26 07:03:44;;;;;;;1.75;0.90;;;;;;;;;;6268003;28;20329;-74
2023/02/26 07:06:46;;;;;;;1.55;0.80;;;;;;;;;;6267116;28;20364;-75
2023/02/26 07:09:48;;;;;;;1.10;0.68;;;;;;;;;;6264583;28;20057;-74
2023/02/26 07:12:52;;;;;;;2.67;0.70;;;;;;;;;;6265965;28;20313;-74
2023/02/26 07:15:55;;;;;;;2.22;0.60;;;;;;;;;;6240719;28;20493;-75
2023/02/26 07:18:58;;;;;;;0.85;0.60;;;;;;;;;;6242174;28;20084;-74
2023/02/26 07:22:00;;;;;;;1.10;0.88;;;;;;;;;;6265522;28;20260;-76
2023/02/26 07:25:12;;;;;;;;;;;;;;;;;;;;;
2023/02/26 07:28:16;;;;;;;1.45;0.80;;;;;;;;;;6267396;28;20049;-74
2023/02/26 07:31:18;;;;;;;0.50;0.50;;;;;;;;;;6263966;28;20099;-73
2023/02/26 07:34:23;;;;;;;1.10;0.68;;;;;;;;;;6267132;28;20099;-74
2023/02/26 07:37:26;;;;;;;1.73;0.77;;;;;;;;;;6267026;28;20048;-75
2023/02/26 07:40:27;;;;;;;1.52;0.90;;;;;;;;;;6265832;28;20088;-73
2023/02/26 07:47:08;;;;;;;1.13;0.47;;;;;;;;;;6262176;28;20050;-74
2023/02/26 07:50:11;;;;;;;1.15;0.50;;;;;;;;;;6265938;28;20050;-74
2023/02/26 07:53:14;;;;;;;1.23;0.60;;;;;;;;;;6263391;28;20053;-75
2023/02/26 07:56:15;;;;;;;2.78;0.50;;;;;;;;;;6266118;28;20064;-72
2023/02/26 07:59:19;;;;;;;1.50;0.60;;;;;;;;;;6265430;28;20053;-74
2023/02/26 08:02:22;;;;;;;2.08;0.60;;;;;;;;;;6268361;28;20060;-73
2023/02/26 08:05:24;;;;;;;1.35;0.68;;;;;;;;;;6263063;28;20057;-72
2023/02/26 08:08:25;;;;;;;1.15;0.80;;;;;;;;;;6264038;28;20051;-72
2023/02/26 08:11:27;;;;;;;0.70;0.50;;;;;;;;;;6265644;28;20223;-71
2023/02/26 08:14:31;;;;;;;1.65;0.50;;;;;;;;;;6264393;28;20080;-73
2023/02/26 08:17:33;;;;;;;1.40;0.50;;;;;;;;;;6264255;28;20360;-72
2023/02/26 08:20:37;;;;;;;1.55;0.55;;;;;;;;;;6266193;28;20049;-72
2023/02/26 08:23:40;;;;;;;0.93;0.50;;;;;;;;;;6263553;28;20049;-73
2023/02/26 08:26:42;;;;;;;1.67;0.50;;;;;;;;;;6263651;28;20658;-72
2023/02/26 08:29:45;;;;;;;1.58;0.50;;;;;;;;;;6263424;28;20045;-73
2023/02/26 08:32:48;;;;;;;0.45;0.38;;;;;;;;;;6266690;28;20072;-73
2023/02/26 08:35:50;;;;;;;2.30;0.73;;;;;;;;;;6261831;28;20108;-73
2023/02/26 08:38:53;;;;;;;1.20;0.50;;;;;;;;;;6265000;28;20041;-72
2023/02/26 08:41:54;;;;;;;1.63;0.60;;;;;;;;;;6263909;28;20367;-73
2023/02/26 08:44:58;;;;;;;0.98;0.60;;;;;;;;;;6263335;28;20090;-73
2023/02/26 08:48:00;;;;;;;3.53;0.80;;;;;;;;;;6262688;28;20053;-73
2023/02/26 08:51:02;;;;;;;0.70;0.43;;;;;;;;;;6259404;28;20049;-73
2023/02/26 08:54:04;;;;;;;0.90;0.55;;;;;;;;;;6265237;28;20053;-73
2023/02/26 08:57:06;;;;;;;0.93;0.60;;;;;;;;;;6261902;28;20053;-73
2023/02/26 09:00:31;;;;;;;2.88;0.80;;;;;;;;;;6265336;28;20245;-72
2023/02/26 09:03:34;;;;;;;1.00;0.60;;;;;;;;;;6264623;28;20053;-71
2023/02/26 09:06:45;;;;;;;;;;;;;;;;;;;;;
2023/02/26 09:09:58;;;;;;;1.33;0.68;;;;;;;;;;6258423;28;20057;-72
2023/02/26 09:13:00;;;;;;;0.82;0.40;;;;;;;;;;6244680;28;20111;-73
2023/02/26 09:16:04;;;;;;;1.42;0.70;;;;;;;;;;6242179;28;20046;-74
2023/02/26 09:19:07;;;;;;;1.38;0.55;;;;;;;;;;6241181;28;20053;-73
2023/02/26 09:22:09;;;;;;;2.40;0.50;;;;;;;;;;6239193;28;20046;-73
2023/02/26 09:25:11;;;;;;;1.20;0.52;;;;;;;;;;6238971;28;20057;-73
2023/02/26 09:28:15;;;;;;;1.63;0.70;;;;;;;;;;6238455;28;20069;-73
2023/02/26 09:34:35;;;;;;;1.30;0.30;;;;;;;;;;6197409;28;20326;-73
2023/02/26 09:38:07;;;;;;;1.20;0.38;;;;;;;;;;6235873;28;20099;-73
2023/02/26 09:41:34;;;;;;;0.60;0.40;;;;;;;;;;6230458;28;20049;-73
2023/02/26 09:44:38;;;;;;;2.28;0.30;;;;;;;;;;6242536;28;20061;-73
2023/02/26 09:47:45;;;;;;;0.75;0.40;;;;;;;;;;6244242;28;20109;-71
2023/02/26 09:50:49;;;;;;;0.90;0.43;;;;;;;;;;6244049;28;20470;-73
2023/02/26 09:53:54;;;;;;;1.10;0.60;;;;;;;;;;6245960;28;20121;-73
2023/02/26 09:56:59;;;;;;;0.68;0.32;;;;;;;;;;6243443;28;20045;-71
2023/02/26 10:00:03;;;;;;;1.42;0.50;;;;;;;;;;6255194;28;20049;-73
2023/02/26 10:03:18;;;;;;;4.10;0.55;;;;;;;;;;6264648;28;20254;-72
2023/02/26 10:06:24;;;;;;;2.42;0.55;;;;;;;;;;6257395;28;20044;-72
2023/02/26 10:09:45;;;;;;;2.63;0.38;;;;;;;;;;6265497;28;20279;-71
2023/02/26 10:12:49;;;;;;;0.73;0.40;;;;;;;;;;6268269;28;20061;-72
2023/02/26 10:15:53;;;;;;;1.02;0.50;;;;;;;;;;6266380;28;20057;-73
2023/02/26 10:19:01;;;;;;;0.55;0.50;;;;;;;;;;6265853;28;20095;-72
2023/02/26 10:22:13;;;;;;;2.33;0.70;;;;;;;;;;6269123;28;20091;-72
2023/02/26 10:25:18;;;;;;;0.90;0.60;;;;;;;;;;6258102;28;20056;-72
2023/02/26 10:28:38;;;;;;;0.60;0.45;;;;;;;;;;6268543;28;20060;-73
2023/02/26 10:31:44;;;;;;;5.88;1.15;;;;;;;;;;6270874;28;20061;-73
2023/02/26 10:34:58;;;;;;;1.40;0.85;;;;;;;;;;6265870;28;20132;-73
2023/02/26 10:38:15;;;;;;;3.97;1.00;;;;;;;;;;6265897;28;20045;-73
2023/02/26 10:41:21;;;;;;;0.98;0.60;;;;;;;;;;6239410;28;20275;-71
2023/02/26 10:45:00;;;;;;;2.53;0.75;;;;;;;;;;6268262;28;20074;-73
2023/02/26 10:48:21;;;;;;;1.42;0.77;;;;;;;;;;6256502;28;20402;-73
2023/02/26 10:51:29;;;;;;;1.15;0.68;;;;;;;;;;6254301;28;20057;-74
2023/02/26 10:54:35;;;;;;;1.27;0.70;;;;;;;;;;6265171;28;20052;-73
2023/02/26 10:57:42;;;;;;;3.03;0.95;;;;;;;;;;6256430;28;20059;-74
2023/02/26 11:00:46;;;;;;;1.48;0.70;;;;;;;;;;6264618;28;20049;-73
2023/02/26 11:03:51;;;;;;;3.53;0.90;;;;;;;;;;6266198;28;20249;-73
2023/02/26 11:06:57;;;;;;;2.67;0.95;;;;;;;;;;6252648;28;20056;-73
2023/02/26 11:09:59;;;;;;;1.77;0.80;;;;;;;;;;6257037;28;20057;-73
2023/02/26 11:13:02;;;;;;;1.67;0.80;;;;;;;;;;6231176;28;20046;-73
2023/02/26 11:16:06;;;;;;;1.63;0.90;;;;;;;;;;6253692;28;20045;-73
2023/02/26 11:19:16;;;;;;;;;;;;;;;;;;6242477;28;20045;-73
2023/02/26 11:25:55;;;;;;;1.35;0.90;;;;;;;;;;6251993;28;20381;-73
2023/02/26 11:29:40;;;;;;;1.58;0.77;;;;;;;;;;6263643;28;20053;-73
2023/02/26 11:32:58;;;;;;;1.90;0.85;;;;;;;;;;6268108;28;20041;-74
2023/02/26 11:36:03;;;;;;;2.38;1.00;;;;;;;;;;6243330;28;20375;-73
2023/02/26 11:39:11;;;;;;;1.52;0.82;;;;;;;;;;6258005;28;20063;-74
2023/02/26 11:45:37;;;;;;;1.50;0.80;;;;;;;;;;6182434;28;20451;-71
2023/02/26 11:48:42;;;;;;;1.33;0.90;;;;;;;;;;6201739;28;20062;-73
2023/02/26 11:51:47;;;;;;;1.90;0.98;;;;;;;;;;6263473;28;20056;-72
2023/02/26 11:54:58;;;;;;;2.22;1.30;;;;;;;;;;6266369;28;20368;-73
2023/02/26 11:58:01;;;;;;;2.40;1.40;;;;;;;;;;6265977;28;20049;-73
2023/02/26 12:01:04;;;;;;;1.98;1.30;;;;;;;;;;6263934;28;20052;-72
2023/02/26 12:04:06;;;;;;;3.30;1.80;;;;;;;;;;6263297;28;20041;-72
2023/02/26 12:07:12;;;;;;;3.22;1.55;;;;;;;;;;6265209;28;20082;-73
2023/02/26 12:10:25;;;;;;;3.95;1.75;;;;;;;;;;6264695;28;20112;-72
2023/02/26 12:13:32;;;;;;;3.05;1.52;;;;;;;;;;6263231;28;20065;-72
2023/02/26 12:16:40;;;;;;;2.67;1.88;;;;;;;;;;6264072;28;20053;-73
2023/02/26 12:19:46;;;;;;;3.15;2.13;;;;;;;;;;6266211;28;20045;-74
2023/02/26 12:22:54;;;;;;;2.78;1.88;;;;;;;;;;6263233;28;20342;-73
2023/02/26 12:26:16;;;;;;;2.83;1.80;;;;;;;;;;6264477;28;20037;-73
2023/02/26 12:29:44;;;;;;;3.00;1.60;;;;;;;;;;6244118;28;20061;-74
2023/02/26 12:33:06;;;;;;;2.38;1.80;;;;;;;;;;6250702;28;20110;-73
2023/02/26 12:36:22;;;;;;;4.68;1.95;;;;;;;;;;6241689;28;20100;-74
2023/02/26 12:39:36;;;;;;;2.38;1.50;;;;;;;;;;6237109;28;20324;-72
2023/02/26 12:42:50;;;;;;;3.22;1.65;;;;;;;;;;6239930;28;20095;-73
2023/02/26 12:46:01;;;;;;;6.10;2.07;;;;;;;;;;6239878;28;20052;-74
2023/02/26 12:49:25;;;;;;;3.85;2.05;;;;;;;;;;6237968;28;20699;-71
2023/02/26 12:52:55;;;;;;;3.80;2.13;;;;;;;;;;6239349;28;20131;-73
2023/02/26 12:56:14;;;;;;;3.00;1.80;;;;;;;;;;6225659;28;20053;-74
2023/02/26 12:59:30;;;;;;;4.47;2.00;;;;;;;;;;6241369;28;20067;-74
2023/02/26 13:02:59;;;;;;;3.22;1.85;;;;;;;;;;6262163;28;20060;-73
2023/02/26 13:06:15;;;;;;;2.25;1.67;;;;;;;;;;6240762;28;20037;-73
2023/02/26 13:09:30;;;;;;;3.97;2.33;;;;;;;;;;6240357;28;20257;-73
2023/02/26 13:12:40;;;;;;;2.70;1.80;;;;;;;;;;6239354;28;20053;-73
2023/02/26 13:16:01;;;;;;;4.72;2.33;;;;;;;;;;6234655;28;20387;-74
2023/02/26 13:19:08;;;;;;;3.97;1.70;;;;;;;;;;6244164;28;20064;-73
2023/02/26 13:22:17;;;;;;;4.15;1.80;;;;;;;;;;6240597;28;20065;-73
2023/02/26 13:25:23;;;;;;;3.55;1.60;;;;;;;;;;6239424;28;20114;-73
2023/02/26 13:28:38;;;;;;;3.28;1.67;;;;;;;;;;6229470;28;20065;-70
2023/02/26 13:31:49;;;;;;;2.90;2.10;;;;;;;;;;6259861;28;20057;-73
2023/02/26 13:34:57;;;;;;;2.67;1.80;;;;;;;;;;6262627;28;20318;-73
2023/02/26 13:38:02;;;;;;;3.05;1.90;;;;;;;;;;6261426;28;20337;-73
2023/02/26 13:41:10;;;;;;;2.70;2.00;;;;;;;;;;6262103;28;20241;-72
2023/02/26 13:44:21;;;;;;;3.30;2.00;;;;;;;;;;6262587;28;20244;-73
2023/02/26 13:47:41;;;;;;;6.85;1.80;;;;;;;;;;6262699;28;20379;-74
2023/02/26 13:50:50;;;;;;;2.58;2.00;;;;;;;;;;6261422;28;20053;-72
2023/02/26 13:53:58;;;;;;;2.67;1.75;;;;;;;;;;6261191;28;20041;-74
2023/02/26 13:57:09;;;;;;;2.28;1.52;;;;;;;;;;6234901;28;20058;-73
2023/02/26 14:00:26;;;;;;;1.88;1.40;;;;;;;;;;6262411;28;20049;-73
2023/02/26 14:03:37;;;;;;;2.80;1.50;;;;;;;;;;6263132;28;20057;-72
2023/02/26 14:06:42;;;;;;;4.50;1.73;;;;;;;;;;6261946;28;20069;-74
2023/02/26 14:09:54;;;;;;;2.35;1.33;;;;;;;;;;6245779;28;20060;-73
2023/02/26 14:13:14;;;;;;;3.80;1.60;;;;;;;;;;6237854;28;20106;-74
2023/02/26 14:16:22;;;;;;;2.28;1.50;;;;;;;;;;6240480;28;20061;-73
2023/02/26 14:19:31;;;;;;;4.50;1.80;;;;;;;;;;6239952;28;20049;-73
2023/02/26 14:22:36;;;;;;;2.65;1.73;;;;;;;;;;6252134;28;20077;-73
2023/02/26 14:25:40;;;;;;;3.90;1.65;;;;;;;;;;6250317;28;20053;-74
2023/02/26 14:28:45;;;;;;;5.63;1.70;;;;;;;;;;6266016;28;20142;-73
2023/02/26 14:32:12;;;;;;;3.05;1.55;;;;;;;;;;6267027;28;20288;-74
2023/02/26 14:35:19;;;;;;;2.28;1.50;;;;;;;;;;6257602;28;20063;-73
2023/02/26 14:38:24;;;;;;;2.15;1.58;;;;;;;;;;6265995;28;20056;-73
2023/02/26 14:41:29;;;;;;;2.72;1.70;;;;;;;;;;6265024;28;20105;-73
2023/02/26 14:44:36;;;;;;;3.45;1.67;;;;;;;;;;6268156;28;20091;-72
2023/02/26 14:47:38;;;;;;;1.67;1.40;;;;;;;;;;6265628;28;20057;-72
2023/02/26 14:51:04;;;;;;;4.00;1.52;;;;;;;;;;6268857;28;20073;-72
2023/02/26 14:54:26;;;;;;;2.40;1.40;;;;;;;;;;6251915;28;20053;-74
2023/02/26 14:58:22;;;;;;;2.67;1.58;;;;;;;;;;6250098;28;20054;-73
2023/02/26 15:01:42;;;;;;;1.33;1.23;;;;;;;;;;6173073;28;20109;-72
2023/02/26 15:05:27;;;;;;;2.00;1.20;;;;;;;;;;6170070;28;20043;-74
2023/02/26 15:08:48;;;;;;;2.55;1.30;;;;;;;;;;6181156;28;20125;-72
2023/02/26 15:12:00;;;;;;;1.75;1.30;;;;;;;;;;6168116;28;20287;-72
2023/02/26 15:15:23;;;;;;;2.35;1.30;;;;;;;;;;6165777;28;20222;-72
2023/02/26 15:19:08;;;;;;;1.98;1.30;;;;;;;;;;6168837;28;20046;-72
2023/02/26 15:22:23;;;;;;;3.03;1.20;;;;;;;;;;6144870;28;20050;-72
2023/02/26 15:25:30;;;;;;;2.05;1.08;;;;;;;;;;6164448;28;20155;-74
2023/02/26 15:28:37;;;;;;;4.97;1.45;;;;;;;;;;6166592;28;20063;-73
2023/02/26 15:32:00;;;;;;;1.88;1.33;;;;;;;;;;6196477;28;20067;-71
2023/02/26 15:35:19;;;;;;;2.30;1.40;;;;;;;;;;6262786;28;20061;-73
2023/02/26 15:38:21;;;;;;;2.65;1.58;;;;;;;;;;6238998;28;20068;-73
2023/02/26 15:41:30;;;;;;;2.58;1.48;;;;;;;;;;6241394;28;20073;-72
2023/02/26 15:44:33;;;;;;;2.78;1.10;;;;;;;;;;6244770;28;20041;-73
2023/02/26 15:48:01;;;;;;;1.90;1.30;;;;;;;;;;6265151;28;20057;-73
2023/02/26 15:51:05;;;;;;;2.35;1.13;;;;;;;;;;6255393;28;20051;-73
2023/02/26 15:54:10;;;;;;;2.92;1.27;;;;;;;;;;6267393;28;20103;-73
2023/02/26 15:57:15;;;;;;;1.88;1.35;;;;;;;;;;6269038;28;20041;-73
2023/02/26 16:00:23;;;;;;;1.45;1.00;;;;;;;;;;6268823;28;20332;-75
2023/02/26 16:03:27;;;;;;;3.00;1.50;;;;;;;;;;6266649;28;20041;-74
2023/02/26 16:06:41;;;;;;;3.40;1.10;;;;;;;;;;6266297;28;20057;-73
2023/02/26 16:09:46;;;;;;;1.20;1.10;;;;;;;;;;6247122;28;20108;-73
2023/02/26 16:12:53;;;;;;;2.45;1.38;;;;;;;;;;6258972;28;20112;-73
2023/02/26 16:15:59;;;;;;;2.03;1.25;;;;;;;;;;6256189;28;20049;-73
2023/02/26 16:19:01;;;;;;;1.95;1.20;;;;;;;;;;6242649;28;20148;-73
2023/02/26 16:22:06;;;;;;;2.58;1.35;;;;;;;;;;6245534;28;20227;-73
2023/02/26 16:25:15;;;;;;;2.35;1.33;;;;;;;;;;6232779;28;20041;-73
2023/02/26 16:28:21;;;;;;;2.58;1.60;;;;;;;;;;6242784;28;20046;-73
2023/02/26 16:31:25;;;;;;;1.70;1.10;;;;;;;;;;6240768;28;20271;-73
2023/02/26 16:34:38;;;;;;;1.65;0.90;;;;;;;;;;6251075;28;20158;-72
2023/02/26 16:42:09;;;;;;;2.85;1.48;;;;;;;;;;6170476;28;20062;-73
2023/02/26 16:45:59;;;;;;;2.75;1.38;;;;;;;;;;6189891;28;21084;-74
2023/02/26 16:49:11;;;;;;;2.03;1.38;;;;;;;;;;6180172;28;20097;-73
2023/02/26 16:52:17;;;;;;;1.95;1.17;;;;;;;;;;6191807;28;20158;-73
2023/02/26 16:55:19;;;;;;;3.13;1.52;;;;;;;;;;6188312;28;20065;-74
2023/02/26 16:58:21;;;;;;;1.83;1.35;;;;;;;;;;6187431;28;20120;-74
2023/02/26 17:01:25;;;;;;;3.03;1.42;;;;;;;;;;6189775;28;20054;-73
2023/02/26 17:04:30;;;;;;;2.13;1.58;;;;;;;;;;6187918;28;20061;-72
2023/02/26 17:07:47;;;;;;;2.83;1.52;;;;;;;;;;6178621;28;20230;-73
2023/02/26 17:15:22;;;;;;;2.50;1.40;;;;;;;;;;6212338;28;20040;-73
2023/02/26 17:18:29;;;;;;;2.70;1.63;;;;;;;;;;6245407;28;20048;-72
2023/02/26 17:21:34;;;;;;;2.30;1.63;;;;;;;;;;6260695;28;20106;-73
2023/02/26 17:24:54;;;;;;;3.67;1.65;;;;;;;;;;6260592;28;20099;-73
2023/02/26 17:28:06;;;;;;;;;;;;;;;;;;;;;
2023/02/26 17:31:10;;;;;;;3.95;1.77;;;;;;;;;;6260324;28;20114;-72
2023/02/26 17:34:20;;;;;;;3.33;1.80;;;;;;;;;;6264054;28;20060;-77
2023/02/26 17:37:30;;;;;;;3.63;1.90;;;;;;;;;;6263383;28;20079;-76
2023/02/26 17:40:39;;;;;;;3.72;2.28;;;;;;;;;;6239214;28;20050;-75
2023/02/26 17:43:41;;;;;;;4.93;2.00;;;;;;;;;;6262211;28;20053;-76
2023/02/26 17:46:44;;;;;;;3.30;2.05;;;;;;;;;;6263206;28;20364;-73
2023/02/26 17:50:09;;;;;;;3.95;2.08;;;;;;;;;;6231967;28;20057;-73
2023/02/26 17:53:39;;;;;;;;;;;;;;;;;;6262090;28;20059;-77
2023/02/26 17:56:43;;;;;;;4.53;2.30;;;;;;;;;;6262401;28;19916;-77
2023/02/26 17:59:57;;;;;;;4.15;2.10;;;;;;;;;;6258459;28;20052;-77
2023/02/26 18:03:03;;;;;;;3.53;2.58;;;;;;;;;;6262452;28;20345;-72
2023/02/26 18:06:07;;;;;;;3.70;2.13;;;;;;;;;;6267542;28;20119;-76
2023/02/26 18:09:10;;;;;;;;;;;;;;;;;;6265640;28;20063;-76
2023/02/26 18:12:13;;;;;;;3.67;2.08;;;;;;;;;;6265570;28;19948;-72
2023/02/26 18:15:27;;;;;;;3.90;2.63;;;;;;;;;;6241516;28;20125;-76
2023/02/26 18:18:29;;;;;;;3.42;2.40;;;;;;;;;;6269470;28;20045;-77
2023/02/26 18:21:33;;;;;;;3.55;2.85;;;;;;;;;;6266774;28;20052;-75
2023/02/26 18:24:35;;;;;;;4.53;3.17;;;;;;;;;;6266039;28;20083;-76
2023/02/26 18:27:59;;;;;;;3.03;2.28;;;;;;;;;;6268373;28;20072;-79
2023/02/26 18:31:07;;;;;;;2.90;2.35;;;;;;;;;;6268107;28;20717;-79
2023/02/26 18:34:09;;;;;;;4.90;2.40;;;;;;;;;;6266071;28;20053;-77
2023/02/26 18:37:14;;;;;;;3.10;2.30;;;;;;;;;;6266328;28;20064;-73
2023/02/26 18:40:20;;;;;;;2.65;1.95;;;;;;;;;;6268762;28;20055;-74
2023/02/26 18:43:23;;;;;;;4.80;2.30;;;;;;;;;;6268386;28;20053;-75
2023/02/26 18:46:25;;;;;;;2.80;1.95;;;;;;;;;;6266622;28;20049;-75
2023/02/26 18:49:32;;;;;;;2.70;1.88;;;;;;;;;;6266035;28;20372;-75
2023/02/26 18:52:36;;;;;;;3.72;2.38;;;;;;;;;;6265282;28;20045;-74
2023/02/26 18:55:38;;;;;;;2.93;1.80;;;;;;;;;;6264373;28;20046;-76
2023/02/26 18:58:41;;;;;;;2.13;1.40;;;;;;;;;;6268803;28;20118;-75
2023/02/26 19:01:43;;;;;;;1.83;1.20;;;;;;;;;;6263609;28;20089;-75
2023/02/26 19:04:45;;;;;;;1.48;0.98;;;;;;;;;;6268432;28;20045;-76
2023/02/26 19:07:48;;;;;;;2.55;1.40;;;;;;;;;;6266256;28;20064;-75
2023/02/26 19:10:58;;;;;;;2.08;1.10;;;;;;;;;;6266784;28;20067;-74
2023/02/26 19:14:00;;;;;;;3.13;1.30;;;;;;;;;;6251976;28;20060;-75
2023/02/26 19:17:05;;;;;;;1.95;0.90;;;;;;;;;;6266618;28;20172;-75